createdAt,value
2019-03-08T00:00:33.645Z,9.72
2019-03-08T00:01:32.992Z,9.64
2019-03-08T00:02:32.991Z,9.67
2019-03-08T00:03:32.965Z,9.70
2019-03-08T00:04:32.996Z,9.74
2019-03-08T00:05:32.948Z,9.69
2019-03-08T00:06:32.939Z,9.70
2019-03-08T00:07:32.959Z,9.72
2019-03-08T00:08:33.724Z,9.73
2019-03-08T00:09:32.916Z,9.73
2019-03-08T00:10:32.893Z,9.73
2019-03-08T00:11:32.893Z,9.66
2019-03-08T00:12:32.911Z,9.64
2019-03-08T00:13:32.889Z,9.72
2019-03-08T00:14:32.851Z,9.69
2019-03-08T00:15:32.895Z,9.72
2019-03-08T00:16:32.833Z,9.69
2019-03-08T00:17:32.816Z,9.64
2019-03-08T00:18:32.848Z,9.62
2019-03-08T00:19:32.808Z,9.62
2019-03-08T00:20:32.785Z,9.58
2019-03-08T00:21:32.771Z,9.59
2019-03-08T00:22:32.767Z,9.69
2019-03-08T00:23:32.767Z,9.63
2019-03-08T00:24:32.791Z,9.64
2019-03-08T00:25:32.737Z,9.58
2019-03-08T00:26:32.722Z,9.67
2019-03-08T00:27:32.711Z,9.67
2019-03-08T00:28:32.720Z,9.67
2019-03-08T00:29:32.678Z,9.67
2019-03-08T00:30:32.672Z,9.67
2019-03-08T00:31:32.688Z,9.56
2019-03-08T00:32:32.650Z,9.62
2019-03-08T00:33:32.638Z,9.62
2019-03-08T00:34:32.658Z,9.64
2019-03-08T00:35:32.625Z,9.59
2019-03-08T00:36:32.611Z,9.63
2019-03-08T00:37:32.600Z,9.55
2019-03-08T00:38:32.586Z,9.56
2019-03-08T00:39:32.612Z,9.62
2019-03-08T00:40:32.573Z,9.54
2019-03-08T00:41:32.552Z,9.56
2019-03-08T00:42:32.572Z,9.59
2019-03-08T00:43:32.541Z,9.62
2019-03-08T00:44:32.518Z,9.62
2019-03-08T00:45:32.534Z,9.56
2019-03-08T00:46:32.496Z,9.56
2019-03-08T00:47:32.480Z,9.59
2019-03-08T00:48:32.491Z,9.59
2019-03-08T00:49:32.492Z,9.58
2019-03-08T00:50:32.450Z,9.56
2019-03-08T00:51:32.444Z,9.58
2019-03-08T00:52:33.141Z,9.55
2019-03-08T00:54:31.410Z,9.56
2019-03-08T00:55:32.427Z,9.55
2019-03-08T00:56:32.390Z,9.54
2019-03-08T00:57:35.132Z,9.49
2019-03-08T00:58:32.368Z,9.51
2019-03-08T00:59:35.134Z,9.49
2019-03-08T01:00:32.348Z,9.42
2019-03-08T01:01:32.378Z,9.40
2019-03-08T01:02:32.702Z,9.49
2019-03-08T01:03:32.306Z,9.47
2019-03-08T01:04:32.294Z,9.48
2019-03-08T01:05:32.302Z,9.51
2019-03-08T01:06:32.272Z,9.55
2019-03-08T01:08:31.249Z,9.54
2019-03-08T01:09:32.261Z,9.56
2019-03-08T01:10:32.237Z,9.59
2019-03-08T01:11:32.220Z,9.54
2019-03-08T01:12:34.172Z,9.51
2019-03-08T01:14:34.132Z,9.47
2019-03-08T01:15:32.180Z,9.47
2019-03-08T01:16:35.131Z,9.47
2019-03-08T01:17:32.176Z,9.39
2019-03-08T01:18:32.142Z,9.51
2019-03-08T01:19:32.143Z,9.55
2019-03-08T01:20:32.122Z,9.44
2019-03-08T01:21:32.108Z,9.54
2019-03-08T01:22:32.127Z,9.47
2019-03-08T01:23:32.110Z,9.44
2019-03-08T01:24:32.076Z,9.47
2019-03-08T01:25:34.622Z,9.45
2019-03-08T01:26:32.098Z,9.42
2019-03-08T01:27:32.044Z,9.45
2019-03-08T01:28:32.030Z,9.33
2019-03-08T01:29:32.023Z,9.37
2019-03-08T01:30:32.027Z,9.44
2019-03-08T01:31:32.007Z,9.36
2019-03-08T01:32:32.016Z,9.44
2019-03-08T01:33:31.976Z,9.33
2019-03-08T01:34:31.964Z,9.34
2019-03-08T01:35:31.955Z,9.31
2019-03-08T01:36:31.946Z,9.40
2019-03-08T01:37:31.934Z,9.34
2019-03-08T01:38:31.974Z,9.44
2019-03-08T01:39:31.925Z,9.40
2019-03-08T01:40:34.621Z,9.31
2019-03-08T01:41:31.906Z,9.34
2019-03-08T01:42:31.884Z,9.39
2019-03-08T01:43:31.874Z,9.37
2019-03-08T01:44:33.815Z,9.39
2019-03-08T01:45:31.856Z,9.44
2019-03-08T01:46:31.848Z,9.44
2019-03-08T01:47:31.822Z,9.37
2019-03-08T01:48:31.812Z,9.39
2019-03-08T01:49:31.804Z,9.42
2019-03-08T01:50:33.730Z,9.42
2019-03-08T01:51:31.796Z,9.40
2019-03-08T01:52:31.780Z,9.42
2019-03-08T01:53:31.754Z,9.40
2019-03-08T01:54:31.778Z,9.44
2019-03-08T01:55:31.741Z,9.42
2019-03-08T01:56:31.720Z,9.30
2019-03-08T01:57:31.726Z,9.40
2019-03-08T01:58:31.726Z,9.45
2019-03-08T01:59:31.714Z,9.36
2019-03-08T02:00:31.687Z,9.39
2019-03-08T02:01:31.670Z,9.39
2019-03-08T02:02:31.670Z,9.31
2019-03-08T02:03:32.116Z,9.33
2019-03-08T02:04:31.642Z,9.36
2019-03-08T02:05:31.628Z,9.36
2019-03-08T02:06:31.610Z,9.37
2019-03-08T02:07:33.194Z,9.33
2019-03-08T02:08:31.602Z,9.44
2019-03-08T02:09:31.580Z,9.42
2019-03-08T02:10:31.577Z,9.39
2019-03-08T02:11:31.561Z,9.42
2019-03-08T02:12:31.557Z,9.47
2019-03-08T02:13:31.536Z,9.44
2019-03-08T02:14:31.553Z,9.48
2019-03-08T02:15:32.116Z,9.48
2019-03-08T02:16:31.506Z,9.37
2019-03-08T02:17:31.500Z,9.49
2019-03-08T02:18:31.479Z,9.39
2019-03-08T02:19:31.468Z,9.49
2019-03-08T02:20:37.645Z,9.49
2019-03-08T02:21:31.444Z,9.47
2019-03-08T02:22:31.436Z,9.39
2019-03-08T02:23:31.428Z,9.44
2019-03-08T02:24:31.413Z,9.51
2019-03-08T02:25:31.433Z,9.51
2019-03-08T02:26:31.391Z,9.51
2019-03-08T02:27:31.421Z,9.54
2019-03-08T02:28:31.376Z,9.47
2019-03-08T02:29:31.367Z,9.52
2019-03-08T02:30:31.376Z,9.54
2019-03-08T02:32:30.328Z,9.52
2019-03-08T02:33:31.351Z,9.58
2019-03-08T02:34:30.307Z,9.59
2019-03-08T02:35:31.294Z,9.62
2019-03-08T02:36:31.280Z,9.52
2019-03-08T02:37:32.106Z,9.63
2019-03-08T02:38:31.258Z,9.56
2019-03-08T02:39:32.156Z,9.56
2019-03-08T02:40:31.256Z,9.64
2019-03-08T02:41:31.224Z,9.67
2019-03-08T02:42:31.216Z,9.66
2019-03-08T02:43:31.216Z,9.69
2019-03-08T02:44:31.199Z,9.66
2019-03-08T02:45:31.212Z,9.58
2019-03-08T02:46:31.178Z,9.67
2019-03-08T02:47:31.163Z,9.64
2019-03-08T02:48:31.155Z,9.62
2019-03-08T02:49:31.158Z,9.62
2019-03-08T02:50:31.164Z,9.55
2019-03-08T02:51:33.603Z,9.66
2019-03-08T02:52:31.122Z,9.54
2019-03-08T02:53:31.094Z,9.67
2019-03-08T02:54:31.089Z,9.63
2019-03-08T02:55:31.101Z,9.67
2019-03-08T02:56:31.063Z,9.66
2019-03-08T02:57:31.078Z,9.58
2019-03-08T02:58:31.056Z,9.67
2019-03-08T02:59:31.028Z,9.66
2019-03-08T03:00:31.045Z,9.63
2019-03-08T03:01:31.019Z,9.62
2019-03-08T03:02:30.999Z,9.64
2019-03-08T03:03:30.991Z,9.74
2019-03-08T03:04:30.975Z,9.69
2019-03-08T03:05:31.003Z,9.73
2019-03-08T03:06:30.948Z,9.73
2019-03-08T03:07:30.942Z,9.73
2019-03-08T03:08:30.937Z,9.73
2019-03-08T03:09:31.599Z,9.73
2019-03-08T03:10:30.906Z,9.72
2019-03-08T03:11:30.931Z,9.70
2019-03-08T03:12:30.892Z,9.67
2019-03-08T03:13:30.882Z,9.64
2019-03-08T03:14:30.868Z,9.72
2019-03-08T03:15:31.597Z,9.69
2019-03-08T03:16:30.847Z,9.63
2019-03-08T03:17:30.880Z,9.64
2019-03-08T03:18:30.823Z,9.72
2019-03-08T03:19:30.809Z,9.67
2019-03-08T03:20:51.805Z,9.73
2019-03-08T03:21:30.788Z,9.72
2019-03-08T03:22:30.810Z,9.70
2019-03-08T03:23:30.769Z,9.73
2019-03-08T03:24:31.599Z,9.73
2019-03-08T03:25:30.751Z,9.70
2019-03-08T03:26:30.731Z,9.70
2019-03-08T03:28:29.747Z,9.73
2019-03-08T03:30:29.696Z,9.73
2019-03-08T03:31:33.588Z,9.70
2019-03-08T03:32:30.669Z,9.72
2019-03-08T03:33:30.687Z,9.69
2019-03-08T03:34:30.654Z,9.67
2019-03-08T03:35:30.630Z,9.72
2019-03-08T03:36:30.621Z,9.70
2019-03-08T03:37:33.603Z,9.69
2019-03-08T03:38:30.601Z,9.73
2019-03-08T03:39:30.589Z,9.73
2019-03-08T03:40:30.590Z,9.69
2019-03-08T03:41:30.573Z,9.69
2019-03-08T03:42:30.593Z,9.67
2019-03-08T03:43:30.552Z,9.70
2019-03-08T03:45:29.528Z,9.67
2019-03-08T03:46:30.515Z,9.72
2019-03-08T03:47:30.508Z,9.69
2019-03-08T03:48:30.499Z,9.74
2019-03-08T03:49:30.483Z,9.70
2019-03-08T03:50:30.501Z,9.64
2019-03-08T03:51:30.462Z,9.69
2019-03-08T03:52:38.129Z,9.66
2019-03-08T03:53:30.444Z,9.62
2019-03-08T03:54:30.421Z,9.69
2019-03-08T03:55:30.438Z,9.62
2019-03-08T03:56:30.420Z,9.69
2019-03-08T03:57:30.391Z,9.56
2019-03-08T03:58:30.395Z,9.59
2019-03-08T03:59:30.372Z,9.56
2019-03-08T04:00:30.387Z,9.59
2019-03-08T04:01:30.352Z,9.66
2019-03-08T04:02:30.338Z,9.62
2019-03-08T04:03:30.326Z,9.59
2019-03-08T04:04:30.347Z,9.58
2019-03-08T04:05:33.629Z,9.67
2019-03-08T04:06:33.095Z,9.62
2019-03-08T04:07:30.285Z,9.59
2019-03-08T04:08:30.279Z,9.73
2019-03-08T04:09:30.263Z,9.66
2019-03-08T04:10:30.283Z,9.66
2019-03-08T04:11:30.243Z,9.64
2019-03-08T04:12:30.257Z,9.64
2019-03-08T04:13:30.213Z,9.63
2019-03-08T04:14:30.231Z,9.66
2019-03-08T04:15:30.226Z,9.70
2019-03-08T04:16:30.189Z,9.62
2019-03-08T04:17:33.082Z,9.63
2019-03-08T04:18:30.163Z,9.62
2019-03-08T04:19:30.155Z,9.67
2019-03-08T04:20:33.079Z,9.66
2019-03-08T04:21:30.129Z,9.66
2019-03-08T04:22:30.173Z,9.66
2019-03-08T04:23:30.115Z,9.62
2019-03-08T04:24:30.099Z,9.58
2019-03-08T04:25:30.111Z,9.62
2019-03-08T04:26:30.071Z,9.58
2019-03-08T04:27:30.065Z,9.62
2019-03-08T04:28:30.067Z,9.62
2019-03-08T04:29:30.043Z,9.64
2019-03-08T04:30:32.579Z,9.58
2019-03-08T04:31:30.025Z,9.54
2019-03-08T04:32:30.010Z,9.62
2019-03-08T04:33:30.003Z,9.62
2019-03-08T04:34:32.628Z,9.56
2019-03-08T04:35:29.979Z,9.62
2019-03-08T04:36:30.385Z,9.56
2019-03-08T04:37:29.954Z,9.62
2019-03-08T04:38:29.943Z,9.59
2019-03-08T04:39:29.931Z,9.59
2019-03-08T04:40:29.923Z,9.62
2019-03-08T04:41:29.909Z,9.62
2019-03-08T04:42:29.939Z,9.63
2019-03-08T04:43:29.896Z,9.56
2019-03-08T04:44:29.879Z,9.52
2019-03-08T04:45:29.863Z,9.63
2019-03-08T04:46:29.859Z,9.56
2019-03-08T04:47:29.923Z,9.56
2019-03-08T04:48:29.865Z,9.62
2019-03-08T04:49:29.819Z,9.62
2019-03-08T04:50:29.815Z,9.55
2019-03-08T04:51:29.803Z,9.56
2019-03-08T04:52:29.794Z,9.52
2019-03-08T04:53:29.813Z,9.51
2019-03-08T04:54:29.780Z,9.52
2019-03-08T04:55:29.755Z,9.52
2019-03-08T04:56:29.744Z,9.55
2019-03-08T04:57:29.763Z,9.58
2019-03-08T04:58:29.723Z,9.42
2019-03-08T05:00:28.703Z,9.49
2019-03-08T05:01:29.694Z,9.52
2019-03-08T05:02:29.709Z,9.55
2019-03-08T05:03:29.668Z,9.64
2019-03-08T05:04:32.565Z,9.56
2019-03-08T05:05:29.663Z,9.56
2019-03-08T05:06:29.651Z,9.62
2019-03-08T05:07:32.578Z,9.54
2019-03-08T05:08:32.562Z,9.58
2019-03-08T05:09:29.617Z,9.59
2019-03-08T05:10:29.597Z,9.56
2019-03-08T05:11:29.587Z,9.62
2019-03-08T05:12:31.008Z,9.47
2019-03-08T05:13:29.565Z,9.44
2019-03-08T05:14:29.559Z,9.45
2019-03-08T05:15:29.544Z,9.45
2019-03-08T05:16:29.523Z,9.39
2019-03-08T05:17:29.547Z,9.47
2019-03-08T05:18:29.531Z,9.45
2019-03-08T05:19:29.501Z,9.42
2019-03-08T05:20:29.487Z,9.45
2019-03-08T05:21:30.728Z,9.47
2019-03-08T05:22:29.463Z,9.48
2019-03-08T05:23:29.480Z,9.49
2019-03-08T05:24:29.440Z,9.47
2019-03-08T05:25:29.430Z,9.49
2019-03-08T05:26:29.442Z,9.48
2019-03-08T05:27:29.413Z,9.47
2019-03-08T05:28:29.433Z,9.49
2019-03-08T05:29:29.431Z,9.47
2019-03-08T05:30:29.382Z,9.45
2019-03-08T05:31:29.373Z,9.45
2019-03-08T05:32:29.366Z,9.39
2019-03-08T05:33:29.362Z,9.47
2019-03-08T05:34:29.334Z,9.49
2019-03-08T05:35:29.337Z,9.44
2019-03-08T05:36:29.305Z,9.45
2019-03-08T05:37:29.297Z,9.45
2019-03-08T05:38:29.327Z,9.42
2019-03-08T05:39:29.273Z,9.45
2019-03-08T05:40:29.262Z,9.45
2019-03-08T05:41:29.258Z,9.58
2019-03-08T05:42:29.249Z,9.47
2019-03-08T05:43:29.257Z,9.47
2019-03-08T05:44:29.224Z,9.47
2019-03-08T05:45:29.229Z,9.51
2019-03-08T05:46:29.200Z,9.49
2019-03-08T05:47:29.188Z,9.47
2019-03-08T05:48:29.203Z,9.49
2019-03-08T05:49:30.056Z,9.42
2019-03-08T05:50:29.152Z,9.48
2019-03-08T05:51:30.062Z,9.39
2019-03-08T05:52:29.139Z,9.44
2019-03-08T05:53:29.597Z,9.40
2019-03-08T05:54:29.110Z,9.42
2019-03-08T05:55:29.101Z,9.45
2019-03-08T05:56:29.086Z,9.44
2019-03-08T05:57:29.082Z,9.44
2019-03-08T05:58:29.136Z,9.44
2019-03-08T05:59:29.056Z,9.49
2019-03-08T06:00:32.025Z,9.52
2019-03-08T06:01:29.061Z,9.44
2019-03-08T06:02:29.025Z,9.47
2019-03-08T06:03:29.010Z,9.44
2019-03-08T06:04:29.004Z,9.47
2019-03-08T06:05:28.991Z,9.47
2019-03-08T06:06:29.014Z,9.42
2019-03-08T06:07:29.551Z,9.44
2019-03-08T06:08:28.978Z,9.47
2019-03-08T06:09:28.944Z,9.47
2019-03-08T06:10:28.935Z,9.51
2019-03-08T06:11:28.921Z,9.44
2019-03-08T06:12:28.974Z,9.48
2019-03-08T06:13:29.093Z,9.42
2019-03-08T06:14:28.890Z,9.49
2019-03-08T06:15:28.876Z,9.45
2019-03-08T06:16:31.550Z,9.44
2019-03-08T06:17:28.850Z,9.47
2019-03-08T06:18:29.106Z,9.51
2019-03-08T06:19:28.837Z,9.47
2019-03-08T06:20:28.828Z,9.49
2019-03-08T06:21:28.812Z,9.45
2019-03-08T06:22:28.803Z,9.47
2019-03-08T06:23:28.835Z,9.44
2019-03-08T06:24:28.782Z,9.49
2019-03-08T06:25:28.788Z,9.45
2019-03-08T06:26:28.767Z,9.47
2019-03-08T06:27:28.758Z,9.44
2019-03-08T06:28:28.733Z,9.44
2019-03-08T06:29:28.752Z,9.51
2019-03-08T06:30:28.749Z,9.45
2019-03-08T06:31:28.697Z,9.45
2019-03-08T06:33:27.693Z,9.48
2019-03-08T06:34:28.672Z,9.49
2019-03-08T06:35:28.663Z,9.51
2019-03-08T06:36:28.683Z,9.51
2019-03-08T06:37:28.641Z,9.44
2019-03-08T06:38:28.630Z,9.42
2019-03-08T06:39:28.613Z,9.49
2019-03-08T06:40:28.603Z,9.42
2019-03-08T06:41:28.622Z,9.47
2019-03-08T06:44:27.558Z,9.44
2019-03-08T06:45:28.551Z,9.44
2019-03-08T06:46:28.567Z,9.42
2019-03-08T06:47:29.042Z,9.54
2019-03-08T06:48:28.547Z,9.44
2019-03-08T06:49:28.507Z,9.47
2019-03-08T06:50:28.525Z,9.58
2019-03-08T06:51:28.520Z,9.47
2019-03-08T06:52:28.477Z,9.54
2019-03-08T06:53:28.463Z,9.52
2019-03-08T06:54:28.459Z,9.62
2019-03-08T06:55:28.462Z,9.59
2019-03-08T06:56:28.426Z,9.54
2019-03-08T06:57:28.416Z,9.56
2019-03-08T06:58:28.406Z,9.59
2019-03-08T06:59:28.398Z,9.63
2019-03-08T07:00:28.422Z,9.58
2019-03-08T07:01:28.406Z,9.59
2019-03-08T07:02:30.186Z,9.62
2019-03-08T07:03:28.351Z,9.63
2019-03-08T07:04:28.340Z,9.64
2019-03-08T07:05:28.329Z,9.58
2019-03-08T07:06:28.352Z,9.59
2019-03-08T07:07:28.319Z,9.62
2019-03-08T07:08:31.052Z,9.64
2019-03-08T07:09:28.287Z,9.66
2019-03-08T07:10:28.279Z,9.66
2019-03-08T07:11:28.294Z,9.73
2019-03-08T07:12:28.256Z,9.70
2019-03-08T07:13:28.256Z,9.66
2019-03-08T07:14:28.232Z,9.69
2019-03-08T07:15:31.034Z,9.70
2019-03-08T07:16:28.237Z,9.72
2019-03-08T07:17:28.197Z,9.69
2019-03-08T07:18:28.183Z,9.64
2019-03-08T07:19:28.174Z,9.64
2019-03-08T07:20:28.164Z,9.64
2019-03-08T07:21:28.179Z,9.67
2019-03-08T07:22:28.142Z,9.73
2019-03-08T07:23:28.391Z,9.67
2019-03-08T07:24:28.150Z,9.70
2019-03-08T07:25:28.110Z,9.73
2019-03-08T07:26:28.096Z,9.80
2019-03-08T07:27:28.089Z,9.81
2019-03-08T07:28:28.074Z,9.80
2019-03-08T07:29:28.070Z,9.81
2019-03-08T07:30:28.080Z,9.87
2019-03-08T07:31:28.051Z,9.91
2019-03-08T07:32:28.071Z,9.97
2019-03-08T07:33:28.026Z,9.90
2019-03-08T07:34:28.066Z,9.97
2019-03-08T07:35:28.012Z,9.94
2019-03-08T07:36:27.997Z,9.95
2019-03-08T07:37:27.987Z,9.99
2019-03-08T07:38:28.006Z,9.99
2019-03-08T07:39:27.955Z,10.02
2019-03-08T07:40:27.944Z,10.03
2019-03-08T07:41:28.907Z,10.12
2019-03-08T07:42:27.923Z,10.13
2019-03-08T07:43:28.098Z,10.18
2019-03-08T07:44:27.908Z,10.23
2019-03-08T07:45:27.891Z,10.25
2019-03-08T07:46:27.880Z,10.24
2019-03-08T07:47:27.869Z,10.21
2019-03-08T07:48:27.861Z,10.25
2019-03-08T07:49:27.879Z,10.21
2019-03-08T07:50:27.836Z,10.30
2019-03-08T07:51:27.834Z,10.21
2019-03-08T07:53:26.802Z,10.27
2019-03-08T07:54:27.798Z,10.25
2019-03-08T07:55:27.782Z,10.28
2019-03-08T07:56:27.770Z,10.34
2019-03-08T07:57:27.760Z,10.34
2019-03-08T07:58:27.796Z,10.42
2019-03-08T07:59:27.743Z,10.34
2019-03-08T08:00:27.736Z,10.36
2019-03-08T08:01:27.750Z,10.39
2019-03-08T08:02:27.706Z,10.48
2019-03-08T08:03:27.694Z,10.46
2019-03-08T08:04:27.683Z,10.49
2019-03-08T08:05:27.668Z,10.48
2019-03-08T08:06:27.662Z,10.43
2019-03-08T08:07:27.686Z,10.43
2019-03-08T08:08:27.636Z,10.46
2019-03-08T08:09:27.637Z,10.48
2019-03-08T08:10:27.643Z,10.55
2019-03-08T08:11:27.602Z,10.53
2019-03-08T08:12:27.590Z,10.48
2019-03-08T08:13:27.590Z,10.51
2019-03-08T08:14:27.567Z,10.43
2019-03-08T08:15:27.562Z,10.43
2019-03-08T08:16:27.569Z,10.48
2019-03-08T08:17:27.542Z,10.42
2019-03-08T08:18:29.071Z,10.38
2019-03-08T08:19:27.517Z,10.48
2019-03-08T08:20:27.508Z,10.49
2019-03-08T08:21:27.491Z,10.41
2019-03-08T08:22:27.513Z,10.45
2019-03-08T08:23:34.088Z,10.48
2019-03-08T08:24:27.451Z,10.55
2019-03-08T08:25:36.281Z,10.61
2019-03-08T08:26:27.444Z,10.59
2019-03-08T08:27:27.438Z,10.57
2019-03-08T08:28:27.448Z,10.48
2019-03-08T08:29:34.664Z,10.61
2019-03-08T08:30:27.399Z,10.59
2019-03-08T08:31:27.390Z,10.62
2019-03-08T08:32:27.386Z,10.62
2019-03-08T08:33:27.361Z,10.58
2019-03-08T08:34:27.375Z,10.59
2019-03-08T08:35:27.339Z,10.59
2019-03-08T08:36:27.333Z,10.58
2019-03-08T08:37:27.327Z,10.59
2019-03-08T08:38:27.307Z,10.57
2019-03-08T08:39:27.300Z,10.62
2019-03-08T08:40:27.320Z,10.51
2019-03-08T08:41:27.274Z,10.57
2019-03-08T08:42:27.268Z,10.57
2019-03-08T08:43:27.260Z,10.49
2019-03-08T08:44:27.249Z,10.51
2019-03-08T08:45:27.236Z,10.65
2019-03-08T08:46:27.255Z,10.65
2019-03-08T08:47:27.243Z,10.65
2019-03-08T08:48:27.200Z,10.51
2019-03-08T08:49:27.195Z,10.58
2019-03-08T08:50:27.174Z,10.67
2019-03-08T08:51:27.163Z,10.65
2019-03-08T08:52:27.189Z,10.62
2019-03-08T08:53:27.150Z,10.65
2019-03-08T08:54:27.133Z,10.59
2019-03-08T08:55:27.126Z,10.62
2019-03-08T08:56:27.112Z,10.59
2019-03-08T08:57:27.131Z,10.62
2019-03-08T08:58:27.102Z,10.68
2019-03-08T08:59:27.079Z,10.65
2019-03-08T09:00:27.075Z,10.62
2019-03-08T09:01:27.057Z,10.65
2019-03-08T09:02:27.061Z,10.71
2019-03-08T09:03:27.059Z,10.68
2019-03-08T09:04:29.508Z,10.72
2019-03-08T09:05:27.015Z,10.77
2019-03-08T09:06:27.011Z,10.71
2019-03-08T09:07:26.989Z,10.71
2019-03-08T09:08:26.983Z,10.76
2019-03-08T09:09:27.012Z,10.79
2019-03-08T09:10:26.955Z,10.76
2019-03-08T09:11:26.956Z,10.86
2019-03-08T09:12:27.500Z,10.76
2019-03-08T09:13:26.961Z,10.77
2019-03-08T09:14:26.916Z,10.72
2019-03-08T09:15:26.905Z,10.82
2019-03-08T09:16:26.887Z,10.79
2019-03-08T09:17:26.900Z,10.86
2019-03-08T09:18:26.865Z,10.84
2019-03-08T09:19:26.888Z,10.90
2019-03-08T09:20:26.848Z,10.86
2019-03-08T09:21:26.842Z,10.92
2019-03-08T09:22:26.822Z,10.87
2019-03-08T09:23:26.814Z,10.87
2019-03-08T09:24:26.807Z,10.90
2019-03-08T09:25:27.070Z,11.01
2019-03-08T09:26:26.809Z,11.00
2019-03-08T09:27:26.776Z,11.02
2019-03-08T09:28:26.773Z,11.00
2019-03-08T09:29:26.755Z,11.02
2019-03-08T09:30:26.740Z,10.97
2019-03-08T09:31:26.747Z,11.05
2019-03-08T09:32:26.715Z,11.07
2019-03-08T09:33:26.704Z,11.02
2019-03-08T09:34:26.693Z,10.98
2019-03-08T09:35:26.691Z,10.84
2019-03-08T09:36:26.704Z,10.87
2019-03-08T09:37:26.665Z,10.97
2019-03-08T09:38:26.654Z,10.90
2019-03-08T09:39:26.647Z,10.90
2019-03-08T09:40:26.629Z,10.87
2019-03-08T09:41:26.636Z,10.86
2019-03-08T09:42:26.613Z,10.84
2019-03-08T09:43:26.597Z,10.86
2019-03-08T09:44:26.601Z,10.89
2019-03-08T09:45:26.574Z,10.89
2019-03-08T09:46:26.566Z,10.80
2019-03-08T09:47:26.585Z,10.89
2019-03-08T09:48:26.545Z,10.90
2019-03-08T09:49:26.529Z,11.00
2019-03-08T09:50:26.524Z,11.00
2019-03-08T09:51:26.506Z,11.00
2019-03-08T09:52:26.499Z,11.00
2019-03-08T09:53:26.511Z,10.94
2019-03-08T09:54:26.484Z,10.90
2019-03-08T09:55:26.467Z,11.02
2019-03-08T09:56:26.447Z,11.05
2019-03-08T09:57:26.435Z,11.07
2019-03-08T09:58:26.422Z,11.15
2019-03-08T09:59:27.542Z,11.13
2019-03-08T10:00:26.435Z,11.15
2019-03-08T10:01:26.395Z,11.20
2019-03-08T10:02:26.385Z,11.26
2019-03-08T10:03:26.381Z,11.23
2019-03-08T10:04:26.360Z,11.13
2019-03-08T10:05:26.376Z,11.08
2019-03-08T10:06:26.351Z,11.01
2019-03-08T10:07:26.341Z,11.00
2019-03-08T10:08:26.324Z,11.04
2019-03-08T10:09:26.314Z,11.02
2019-03-08T10:10:26.299Z,11.08
2019-03-08T10:11:26.317Z,11.02
2019-03-08T10:12:26.279Z,11.10
2019-03-08T10:13:26.264Z,11.07
2019-03-08T10:14:26.568Z,10.97
2019-03-08T10:15:26.237Z,11.02
2019-03-08T10:16:26.238Z,11.01
2019-03-08T10:17:26.221Z,10.98
2019-03-08T10:18:26.205Z,11.01
2019-03-08T10:19:26.226Z,11.05
2019-03-08T10:20:26.251Z,11.08
2019-03-08T10:21:26.175Z,11.12
2019-03-08T10:22:26.179Z,11.07
2019-03-08T10:23:26.154Z,11.00
2019-03-08T10:24:26.143Z,11.05
2019-03-08T10:25:26.137Z,11.01
2019-03-08T10:26:26.144Z,11.00
2019-03-08T10:27:26.113Z,11.02
2019-03-08T10:28:26.109Z,11.01
2019-03-08T10:29:26.092Z,11.01
2019-03-08T10:30:26.077Z,11.00
2019-03-08T10:31:26.062Z,11.07
2019-03-08T10:32:26.091Z,11.12
2019-03-08T10:33:26.043Z,11.15
2019-03-08T10:34:26.037Z,11.31
2019-03-08T10:35:26.053Z,11.31
2019-03-08T10:36:26.009Z,11.23
2019-03-08T10:37:25.997Z,11.27
2019-03-08T10:38:26.026Z,11.19
2019-03-08T10:39:25.980Z,11.18
2019-03-08T10:40:25.965Z,11.16
2019-03-08T10:41:25.958Z,11.15
2019-03-08T10:42:25.947Z,11.10
2019-03-08T10:43:25.962Z,11.05
2019-03-08T10:44:25.931Z,11.04
2019-03-08T10:45:25.911Z,11.05
2019-03-08T10:46:25.936Z,11.12
2019-03-08T10:47:25.886Z,11.18
2019-03-08T10:48:25.876Z,11.23
2019-03-08T10:49:25.935Z,11.30
2019-03-08T10:50:25.856Z,11.25
2019-03-08T10:51:25.846Z,11.34
2019-03-08T10:52:25.828Z,11.34
2019-03-08T10:53:28.479Z,11.44
2019-03-08T10:54:25.865Z,11.41
2019-03-08T10:55:25.832Z,11.45
2019-03-08T10:56:25.794Z,11.51
2019-03-08T10:57:25.776Z,11.48
2019-03-08T10:58:25.765Z,11.40
2019-03-08T10:59:25.751Z,11.41
2019-03-08T11:00:25.783Z,11.52
2019-03-08T11:01:25.740Z,11.31
2019-03-08T11:02:25.717Z,11.23
2019-03-08T11:03:25.722Z,11.13
2019-03-08T11:04:25.707Z,11.19
2019-03-08T11:05:26.477Z,11.16
2019-03-08T11:06:25.709Z,11.19
2019-03-08T11:07:25.679Z,11.13
2019-03-08T11:08:29.786Z,11.30
2019-03-08T11:09:25.658Z,11.18
2019-03-08T11:10:25.631Z,11.19
2019-03-08T11:11:25.663Z,11.18
2019-03-08T11:12:25.616Z,11.15
2019-03-08T11:13:25.606Z,11.22
2019-03-08T11:14:25.590Z,11.25
2019-03-08T11:15:25.577Z,11.15
2019-03-08T11:16:25.569Z,11.18
2019-03-08T11:17:25.925Z,11.30
2019-03-08T11:18:25.546Z,11.12
2019-03-08T11:19:27.521Z,11.19
2019-03-08T11:20:25.529Z,11.13
2019-03-08T11:21:25.511Z,11.10
2019-03-08T11:22:25.501Z,11.10
2019-03-08T11:23:25.530Z,11.05
2019-03-08T11:24:25.488Z,11.07
2019-03-08T11:25:34.546Z,11.05
2019-03-08T11:26:25.458Z,11.04
2019-03-08T11:27:25.463Z,11.01
2019-03-08T11:28:25.442Z,11.02
2019-03-08T11:29:25.454Z,11.00
2019-03-08T11:30:25.422Z,11.00
2019-03-08T11:31:25.401Z,10.84
2019-03-08T11:32:25.431Z,10.90
2019-03-08T11:33:25.391Z,10.82
2019-03-08T11:34:25.510Z,10.86
2019-03-08T11:35:25.384Z,10.76
2019-03-08T11:36:25.353Z,10.75
2019-03-08T11:37:25.361Z,10.69
2019-03-08T11:38:25.329Z,10.75
2019-03-08T11:39:25.333Z,10.77
2019-03-08T11:40:25.331Z,10.76
2019-03-08T11:41:25.300Z,10.75
2019-03-08T11:42:25.285Z,10.79
2019-03-08T11:43:25.279Z,10.75
2019-03-08T11:44:25.263Z,10.76
2019-03-08T11:45:26.269Z,10.79
2019-03-08T11:46:25.265Z,10.86
2019-03-08T11:47:25.225Z,10.82
2019-03-08T11:48:25.221Z,10.84
2019-03-08T11:49:25.199Z,10.83
2019-03-08T11:50:25.207Z,10.83
2019-03-08T11:51:25.183Z,10.89
2019-03-08T11:52:25.214Z,10.94
2019-03-08T11:53:25.171Z,10.94
2019-03-08T11:54:25.155Z,10.90
2019-03-08T11:55:25.137Z,10.86
2019-03-08T11:56:25.134Z,10.87
2019-03-08T11:57:25.158Z,10.90
2019-03-08T11:58:25.133Z,10.87
2019-03-08T11:59:25.095Z,10.90
2019-03-08T12:00:25.088Z,10.87
2019-03-08T12:01:25.076Z,10.92
2019-03-08T12:02:25.067Z,11.04
2019-03-08T12:03:25.083Z,11.00
2019-03-08T12:04:25.040Z,10.87
2019-03-08T12:05:25.032Z,10.77
2019-03-08T12:06:25.107Z,10.82
2019-03-08T12:07:25.013Z,10.79
2019-03-08T12:08:25.003Z,10.75
2019-03-08T12:09:24.986Z,10.76
2019-03-08T12:10:24.974Z,10.61
2019-03-08T12:11:24.961Z,10.69
2019-03-08T12:12:24.984Z,10.61
2019-03-08T12:13:24.935Z,10.64
2019-03-08T12:14:24.941Z,10.65
2019-03-08T12:15:24.922Z,10.68
2019-03-08T12:16:24.913Z,10.57
2019-03-08T12:17:24.916Z,10.51
2019-03-08T12:18:24.911Z,10.36
2019-03-08T12:19:24.873Z,10.42
2019-03-08T12:20:24.907Z,10.46
2019-03-08T12:21:24.853Z,10.42
2019-03-08T12:22:24.847Z,10.45
2019-03-08T12:23:24.826Z,10.46
2019-03-08T12:24:24.827Z,10.41
2019-03-08T12:25:24.803Z,10.55
2019-03-08T12:26:24.824Z,10.57
2019-03-08T12:27:24.805Z,10.53
2019-03-08T12:28:24.783Z,10.67
2019-03-08T12:29:24.769Z,10.67
2019-03-08T12:30:24.768Z,10.62
2019-03-08T12:31:24.744Z,10.64
2019-03-08T12:32:24.757Z,10.71
2019-03-08T12:33:24.727Z,10.58
2019-03-08T12:34:24.714Z,10.57
2019-03-08T12:35:24.701Z,10.58
2019-03-08T12:36:24.710Z,10.57
2019-03-08T12:37:24.682Z,10.53
2019-03-08T12:38:24.693Z,10.64
2019-03-08T12:39:24.661Z,10.62
2019-03-08T12:40:24.645Z,10.65
2019-03-08T12:41:24.638Z,10.65
2019-03-08T12:42:24.627Z,10.79
2019-03-08T12:43:24.647Z,10.79
2019-03-08T12:44:24.609Z,10.87
2019-03-08T12:45:24.587Z,10.80
2019-03-08T12:46:24.604Z,10.82
2019-03-08T12:47:24.565Z,10.75
2019-03-08T12:48:24.561Z,10.76
2019-03-08T12:49:24.577Z,10.82
2019-03-08T12:50:24.537Z,10.86
2019-03-08T12:51:24.526Z,10.87
2019-03-08T12:52:24.512Z,10.94
2019-03-08T12:53:24.500Z,10.95
2019-03-08T12:54:24.487Z,11.00
2019-03-08T12:55:24.518Z,10.87
2019-03-08T12:56:24.465Z,10.90
2019-03-08T12:57:24.460Z,10.97
2019-03-08T12:58:24.444Z,10.86
2019-03-08T12:59:24.440Z,10.94
2019-03-08T13:00:24.549Z,10.97
2019-03-08T13:01:26.947Z,10.87
2019-03-08T13:02:24.412Z,10.84
2019-03-08T13:03:24.394Z,10.89
2019-03-08T13:04:24.382Z,10.90
2019-03-08T13:05:24.376Z,10.84
2019-03-08T13:06:24.410Z,10.79
2019-03-08T13:07:24.343Z,10.79
2019-03-08T13:08:24.396Z,10.80
2019-03-08T13:09:24.328Z,10.71
2019-03-08T13:10:24.314Z,10.68
2019-03-08T13:11:32.708Z,10.61
2019-03-08T13:12:26.943Z,10.59
2019-03-08T13:13:24.277Z,10.65
2019-03-08T13:14:24.321Z,10.71
2019-03-08T13:15:24.253Z,10.62
2019-03-08T13:16:24.247Z,10.69
2019-03-08T13:17:24.250Z,10.71
2019-03-08T13:18:24.235Z,10.65
2019-03-08T13:19:24.217Z,10.69